Shepherd's Bush, United Kingdom
Current Conditions -  °F | °C
As of 10:50 PM on Friday 31 Oct 2014 (Local Time) from EGWU Reporting Station
Clear Clear  
Wind Chill: 16°   Ceiling: Unl
Heat Index: 16°   Visibility: 6mi
Dew Point: 12°   Wind: 6mph
Humidity: 77%   Direction: 200°SSW
Pressure: 29.94"   Gusts: NA
Location:  51.51°N, 0.24°W
Report Text: EGWU 312250Z AUTO 20005KT 9999 // NCD 16/12 Q1014
Loading
Personal Weather Stations






























Interactive Weather Map
Tropical Storm Tracking
New forecast layout! Learn more

10-Day Weather Forecast

Advertisements
Track Severe Weather on mobile